createdAt,value
2023-04-18T00:00:10.405Z,2.03
2023-04-18T00:02:38.717Z,2.10
2023-04-18T00:05:09.093Z,2.20
2023-04-18T00:07:36.146Z,1.85
2023-04-18T00:10:04.448Z,2.20
2023-04-18T00:12:32.017Z,1.70
2023-04-18T00:14:58.881Z,2.10
2023-04-18T00:17:28.884Z,2.05
2023-04-18T00:19:56.457Z,1.63
2023-04-18T00:22:23.622Z,1.90
2023-04-18T00:24:51.643Z,2.10
2023-04-18T00:27:18.895Z,1.52
2023-04-18T00:29:45.899Z,1.75
2023-04-18T00:32:13.159Z,1.70
2023-04-18T00:34:40.614Z,1.55
2023-04-18T00:37:08.118Z,1.60
2023-04-18T00:39:38.021Z,1.73
2023-04-18T00:42:05.045Z,1.85
2023-04-18T00:44:32.390Z,1.70
2023-04-18T00:46:59.437Z,1.40
2023-04-18T00:49:27.023Z,1.65
2023-04-18T00:51:56.669Z,1.85
2023-04-18T00:54:26.324Z,1.50
2023-04-18T00:56:53.524Z,1.70
2023-04-18T00:59:21.646Z,1.50
2023-04-18T01:01:48.717Z,1.65
2023-04-18T01:04:15.878Z,1.92
2023-04-18T01:06:44.225Z,1.83
2023-04-18T01:09:11.540Z,1.58
2023-04-18T01:11:38.426Z,1.52
2023-04-18T01:14:06.967Z,1.92
2023-04-18T01:16:34.407Z,1.90
2023-04-18T01:19:02.135Z,1.67
2023-04-18T01:21:33.982Z,2.03
2023-04-18T01:24:08.410Z,1.83
2023-04-18T01:26:35.313Z,3.63
2023-04-18T01:29:02.199Z,1.88
2023-04-18T01:31:29.262Z,1.58
2023-04-18T01:33:56.145Z,1.60
2023-04-18T01:36:23.002Z,1.65
2023-04-18T01:38:49.857Z,1.55
2023-04-18T01:41:16.709Z,1.60
2023-04-18T01:43:43.542Z,1.70
2023-04-18T01:46:10.557Z,1.40
2023-04-18T01:48:37.509Z,1.75
2023-04-18T01:51:04.634Z,1.50
2023-04-18T01:53:32.311Z,1.40
2023-04-18T01:55:59.220Z,1.50
2023-04-18T01:58:26.826Z,1.70
2023-04-18T02:00:54.749Z,2.20
2023-04-18T02:03:21.902Z,1.52
2023-04-18T02:05:48.839Z,1.83
2023-04-18T02:08:15.787Z,1.80
2023-04-18T02:10:42.792Z,1.40
2023-04-18T02:13:09.989Z,1.95
2023-04-18T02:15:37.032Z,2.00
2023-04-18T02:18:04.224Z,1.50
2023-04-18T02:20:31.799Z,1.90
2023-04-18T02:22:59.021Z,1.90
2023-04-18T02:25:27.711Z,1.52
2023-04-18T02:27:55.231Z,1.60
2023-04-18T02:30:22.617Z,1.30
2023-04-18T02:32:59.455Z,1.52
2023-04-18T02:35:27.460Z,1.48
2023-04-18T02:37:54.404Z,1.30
2023-04-18T02:40:21.285Z,1.30
2023-04-18T02:42:48.136Z,1.50
2023-04-18T02:45:15.057Z,1.60
2023-04-18T02:47:53.681Z,1.90
2023-04-18T02:50:22.794Z,2.00
2023-04-18T02:52:49.687Z,1.63
2023-04-18T02:55:16.726Z,2.28
2023-04-18T02:57:43.607Z,2.63
2023-04-18T03:00:11.200Z,1.90
2023-04-18T03:02:38.171Z,1.90
2023-04-18T03:05:06.321Z,1.55
2023-04-18T03:07:33.348Z,1.60
2023-04-18T03:10:01.663Z,1.50
2023-04-18T03:12:28.712Z,1.42
2023-04-18T03:14:55.624Z,1.70
2023-04-18T03:17:22.590Z,1.90
2023-04-18T03:19:49.552Z,1.45
2023-04-18T03:22:16.703Z,1.88
2023-04-18T03:24:43.573Z,1.40
2023-04-18T03:27:11.536Z,1.50
2023-04-18T03:29:38.616Z,1.92
2023-04-18T03:32:05.822Z,1.73
2023-04-18T03:34:32.705Z,1.55
2023-04-18T03:36:59.631Z,1.55
2023-04-18T03:39:26.483Z,1.55
2023-04-18T03:41:53.562Z,1.70
2023-04-18T03:44:20.472Z,1.30
2023-04-18T03:46:47.440Z,1.30
2023-04-18T03:49:14.337Z,2.15
2023-04-18T03:51:49.982Z,1.67
2023-04-18T03:54:17.400Z,2.08
2023-04-18T03:56:44.951Z,1.52
2023-04-18T03:59:12.398Z,1.63
2023-04-18T04:01:39.463Z,1.83
2023-04-18T04:04:06.732Z,1.27
2023-04-18T04:06:33.749Z,1.77
2023-04-18T04:09:01.043Z,2.00
2023-04-18T04:11:27.902Z,2.10
2023-04-18T04:13:54.734Z,1.73
2023-04-18T04:16:21.728Z,1.83
2023-04-18T04:18:48.641Z,1.83
2023-04-18T04:21:15.927Z,1.90
2023-04-18T04:23:43.031Z,2.00
2023-04-18T04:26:10.061Z,1.65
2023-04-18T04:28:36.995Z,1.60
2023-04-18T04:31:08.215Z,1.38
2023-04-18T04:33:35.851Z,2.10
2023-04-18T04:36:02.739Z,2.15
2023-04-18T04:38:31.166Z,2.45
2023-04-18T04:40:58.517Z,1.77
2023-04-18T04:43:28.699Z,2.03
2023-04-18T04:45:56.027Z,2.55
2023-04-18T04:48:24.474Z,2.00
2023-04-18T04:50:53.339Z,1.58
2023-04-18T04:53:20.330Z,1.70
2023-04-18T04:55:47.621Z,1.70
2023-04-18T04:58:14.661Z,1.80
2023-04-18T05:00:41.642Z,1.52
2023-04-18T05:03:09.017Z,1.40
2023-04-18T05:05:36.244Z,1.90
2023-04-18T05:08:03.519Z,1.50
2023-04-18T05:10:30.725Z,1.58
2023-04-18T05:12:57.577Z,1.20
2023-04-18T05:15:25.109Z,1.35
2023-04-18T05:17:52.106Z,2.58
2023-04-18T05:20:19.004Z,1.67
2023-04-18T05:22:45.936Z,2.17
2023-04-18T05:25:12.896Z,2.60
2023-04-18T05:27:40.635Z,1.20
2023-04-18T05:30:08.098Z,1.58
2023-04-18T05:32:35.076Z,1.88
2023-04-18T05:35:01.996Z,3.10
2023-04-18T05:37:29.095Z,2.88
2023-04-18T05:39:56.049Z,1.50
2023-04-18T05:42:23.109Z,1.15
2023-04-18T05:44:50.009Z,1.20
2023-04-18T05:47:17.613Z,1.40
2023-04-18T05:49:44.550Z,1.73
2023-04-18T05:52:11.542Z,1.88
2023-04-18T05:54:38.525Z,1.42
2023-04-18T05:57:05.794Z,1.35
2023-04-18T05:59:32.754Z,1.35
2023-04-18T06:01:59.693Z,1.20
2023-04-18T06:04:26.810Z,1.60
2023-04-18T06:06:53.823Z,1.30
2023-04-18T06:09:20.786Z,1.38
2023-04-18T06:11:47.639Z,1.75
2023-04-18T06:14:14.650Z,1.67
2023-04-18T06:16:42.044Z,1.60
2023-04-18T06:19:09.018Z,2.22
2023-04-18T06:21:35.993Z,1.20
2023-04-18T06:24:03.096Z,1.42
2023-04-18T06:26:32.149Z,1.90
2023-04-18T06:28:59.130Z,1.70
2023-04-18T06:31:26.096Z,1.42
2023-04-18T06:33:53.272Z,1.98
2023-04-18T06:36:20.436Z,1.48
2023-04-18T06:38:47.327Z,1.02
2023-04-18T06:41:14.898Z,1.40
2023-04-18T06:43:52.050Z,1.35
2023-04-18T06:46:26.647Z,1.70
2023-04-18T06:48:53.615Z,1.80
2023-04-18T06:51:20.540Z,1.30
2023-04-18T06:53:47.733Z,1.30
2023-04-18T06:56:14.678Z,1.58
2023-04-18T06:58:41.613Z,1.48
2023-04-18T07:01:08.587Z,1.67
2023-04-18T07:03:35.491Z,1.20
2023-04-18T07:06:03.110Z,1.50
2023-04-18T07:08:29.913Z,1.30
2023-04-18T07:10:56.771Z,2.00
2023-04-18T07:13:23.641Z,1.90
2023-04-18T07:15:50.546Z,2.10
2023-04-18T07:18:30.118Z,1.38
2023-04-18T07:21:01.907Z,1.63
2023-04-18T07:23:28.848Z,1.50
2023-04-18T07:25:55.760Z,1.63
2023-04-18T07:28:22.660Z,2.08
2023-04-18T07:30:50.277Z,1.67
2023-04-18T07:33:17.224Z,1.48
2023-04-18T07:35:46.107Z,1.40
2023-04-18T07:38:13.254Z,1.77
2023-04-18T07:40:40.212Z,1.80
2023-04-18T07:43:07.181Z,1.42
2023-04-18T07:45:38.361Z,2.72
2023-04-18T07:48:06.030Z,1.52
2023-04-18T07:50:32.962Z,1.30
2023-04-18T07:53:00.202Z,1.40
2023-04-18T07:55:27.283Z,1.55
2023-04-18T07:57:54.108Z,1.33
2023-04-18T08:00:21.392Z,1.40
2023-04-18T08:02:48.481Z,1.50
2023-04-18T08:05:15.515Z,1.30
2023-04-18T08:07:42.494Z,2.10
2023-04-18T08:10:09.585Z,1.30
2023-04-18T08:12:36.822Z,1.10
2023-04-18T08:15:04.543Z,1.20
2023-04-18T08:17:31.536Z,0.90
2023-04-18T08:19:58.480Z,1.08
2023-04-18T08:22:25.395Z,1.17
2023-04-18T08:27:24.300Z,2.28
2023-04-18T08:29:51.200Z,1.20
2023-04-18T08:32:18.106Z,2.78
2023-04-18T08:34:46.878Z,1.33
2023-04-18T08:37:14.452Z,0.95
2023-04-18T08:39:41.303Z,1.08
2023-04-18T08:42:10.424Z,1.00
2023-04-18T08:44:37.804Z,1.08
2023-04-18T08:47:04.938Z,1.10
2023-04-18T08:49:31.961Z,0.93
2023-04-18T08:52:01.481Z,1.08
2023-04-18T08:54:30.577Z,1.30
2023-04-18T08:57:07.565Z,1.15
2023-04-18T08:59:35.751Z,0.93
2023-04-18T09:02:04.451Z,1.17
2023-04-18T09:04:37.029Z,0.70
2023-04-18T09:07:29.686Z,1.48
2023-04-18T09:09:58.030Z,1.67
2023-04-18T09:12:29.495Z,1.27
2023-04-18T09:15:17.344Z,1.40
2023-04-18T09:17:49.573Z,1.00
2023-04-18T09:20:43.802Z,1.10
2023-04-18T09:23:14.762Z,1.00
2023-04-18T09:25:44.574Z,0.90
2023-04-18T09:28:30.200Z,1.60
2023-04-18T09:30:59.209Z,0.88
2023-04-18T09:33:36.772Z,0.73
2023-04-18T09:36:24.630Z,0.85
2023-04-18T09:38:55.553Z,1.17
2023-04-18T09:41:24.037Z,1.83
2023-04-18T09:44:14.347Z,1.10
2023-04-18T09:46:43.855Z,2.22
2023-04-18T09:49:12.530Z,1.25
2023-04-18T09:51:41.693Z,1.27
2023-04-18T09:54:11.064Z,1.20
2023-04-18T09:56:41.903Z,1.10
2023-04-18T09:59:10.052Z,0.95
2023-04-18T10:01:37.482Z,1.27
2023-04-18T10:04:06.942Z,2.08
2023-04-18T10:06:38.560Z,1.55
2023-04-18T10:09:08.496Z,1.20
2023-04-18T10:11:36.177Z,1.08
2023-04-18T10:14:13.143Z,1.88
2023-04-18T10:16:40.950Z,1.17
2023-04-18T10:19:30.123Z,1.20
2023-04-18T10:21:59.426Z,1.10
2023-04-18T10:24:54.548Z,1.60
2023-04-18T10:27:49.623Z,1.10
2023-04-18T10:30:17.468Z,1.17
2023-04-18T10:32:47.046Z,1.27
2023-04-18T10:35:13.993Z,0.90
2023-04-18T10:37:59.860Z,1.45
2023-04-18T10:40:36.861Z,1.52
2023-04-18T10:43:03.800Z,1.00
2023-04-18T10:45:32.646Z,1.23
2023-04-18T10:48:29.583Z,2.17
2023-04-18T10:51:19.018Z,1.08
2023-04-18T10:53:54.031Z,1.77
2023-04-18T10:56:21.737Z,0.80
2023-04-18T10:58:53.441Z,0.88
2023-04-18T11:01:32.501Z,1.08
2023-04-18T11:04:00.570Z,0.82
2023-04-18T11:06:27.896Z,1.27
2023-04-18T11:09:12.276Z,1.50
2023-04-18T11:11:39.513Z,1.02
2023-04-18T11:14:06.420Z,1.33
2023-04-18T11:16:34.497Z,0.70
2023-04-18T11:19:01.490Z,1.17
2023-04-18T11:21:30.711Z,1.55
2023-04-18T11:23:58.362Z,0.88
2023-04-18T11:26:29.146Z,0.93
2023-04-18T11:28:59.121Z,0.95
2023-04-18T11:31:27.798Z,0.77
2023-04-18T11:33:57.748Z,1.52
2023-04-18T11:36:24.758Z,0.88
2023-04-18T11:38:51.766Z,0.93
2023-04-18T11:41:18.691Z,0.80
2023-04-18T11:43:46.819Z,0.63
2023-04-18T11:46:13.998Z,0.73
2023-04-18T11:48:43.308Z,0.82
2023-04-18T11:51:35.707Z,1.13
2023-04-18T11:54:02.836Z,0.85
2023-04-18T11:56:29.923Z,0.77
2023-04-18T11:58:56.983Z,0.82
2023-04-18T12:01:25.420Z,1.00
2023-04-18T12:04:06.770Z,0.63
2023-04-18T12:06:46.972Z,1.25
2023-04-18T12:09:15.330Z,0.80
2023-04-18T12:11:42.627Z,1.10
2023-04-18T12:14:22.362Z,0.88
2023-04-18T12:16:50.400Z,0.80
2023-04-18T12:19:17.607Z,0.57
2023-04-18T12:22:05.279Z,1.48
2023-04-18T12:24:32.800Z,0.60
2023-04-18T12:26:59.897Z,0.40
2023-04-18T12:29:28.603Z,0.70
2023-04-18T12:31:55.703Z,0.80
2023-04-18T12:34:22.689Z,0.85
2023-04-18T12:36:49.633Z,0.70
2023-04-18T12:39:16.604Z,0.73
2023-04-18T12:41:44.234Z,0.82
2023-04-18T12:44:11.611Z,1.52
2023-04-18T12:46:38.670Z,0.90
2023-04-18T12:49:05.744Z,1.30
2023-04-18T12:51:32.909Z,1.00
2023-04-18T12:53:59.837Z,1.20
2023-04-18T12:56:26.855Z,0.70
2023-04-18T12:58:53.689Z,0.47
2023-04-18T13:01:20.958Z,0.75
2023-04-18T13:03:56.461Z,1.38
2023-04-18T13:06:27.242Z,0.93
2023-04-18T13:08:54.166Z,0.60
2023-04-18T13:11:22.583Z,0.65
2023-04-18T13:13:49.607Z,0.73
2023-04-18T13:16:16.659Z,0.40
2023-04-18T13:18:43.829Z,0.65
2023-04-18T13:21:10.772Z,0.60
2023-04-18T13:23:38.024Z,0.65
2023-04-18T13:26:05.026Z,0.65
2023-04-18T13:28:32.374Z,0.60
2023-04-18T13:30:59.802Z,0.70
2023-04-18T13:33:26.639Z,0.50
2023-04-18T13:35:53.865Z,0.60
2023-04-18T13:38:20.798Z,0.63
2023-04-18T13:40:47.641Z,0.80
2023-04-18T13:43:15.501Z,0.68
2023-04-18T13:45:42.389Z,0.85
2023-04-18T13:48:09.397Z,1.35
2023-04-18T13:50:36.358Z,0.60
2023-04-18T13:53:03.315Z,0.70
2023-04-18T13:55:30.203Z,0.82
2023-04-18T13:57:57.021Z,0.40
2023-04-18T14:00:24.003Z,0.77
2023-04-18T14:02:51.205Z,0.95
2023-04-18T14:05:18.616Z,0.50
2023-04-18T14:07:45.562Z,0.90
2023-04-18T14:10:12.469Z,0.70
2023-04-18T14:12:40.126Z,0.50
2023-04-18T14:15:07.841Z,0.75
2023-04-18T14:17:35.060Z,0.82
2023-04-18T14:20:02.449Z,0.90
2023-04-18T14:22:29.379Z,0.70
2023-04-18T14:24:56.432Z,0.70
2023-04-18T14:27:25.516Z,0.50
2023-04-18T14:29:52.396Z,1.45
2023-04-18T14:32:19.325Z,0.50
2023-04-18T14:34:46.394Z,0.80
2023-04-18T14:37:14.977Z,0.60
2023-04-18T14:39:42.536Z,0.60
2023-04-18T14:42:09.477Z,0.52
2023-04-18T14:44:36.393Z,0.70
2023-04-18T14:47:03.418Z,0.65
2023-04-18T14:49:30.313Z,1.60
2023-04-18T14:51:57.158Z,0.50
2023-04-18T14:54:24.092Z,0.77
2023-04-18T14:56:51.340Z,0.95
2023-04-18T14:59:18.402Z,0.57
2023-04-18T15:01:45.864Z,0.70
2023-04-18T15:04:13.284Z,0.75
2023-04-18T15:06:40.728Z,0.40
2023-04-18T15:09:07.692Z,0.63
2023-04-18T15:11:34.578Z,0.55
2023-04-18T15:14:01.471Z,0.50
2023-04-18T15:16:28.373Z,0.60
2023-04-18T15:18:55.413Z,0.30
2023-04-18T15:21:22.393Z,0.75
2023-04-18T15:23:49.361Z,0.90
2023-04-18T15:26:16.550Z,1.13
2023-04-18T15:28:43.780Z,0.40
2023-04-18T15:31:11.040Z,0.68
2023-04-18T15:33:37.973Z,0.55
2023-04-18T15:36:05.301Z,0.40
2023-04-18T15:38:33.217Z,1.00
2023-04-18T15:41:00.209Z,0.60
2023-04-18T15:43:27.142Z,1.02
2023-04-18T15:45:54.243Z,0.60
2023-04-18T15:48:21.195Z,0.38
2023-04-18T15:50:52.228Z,0.70
2023-04-18T15:53:19.334Z,1.20
2023-04-18T15:55:46.993Z,0.40
2023-04-18T15:58:13.946Z,0.77
2023-04-18T16:00:41.024Z,0.57
2023-04-18T16:03:10.503Z,0.50
2023-04-18T16:05:37.440Z,1.95
2023-04-18T16:08:04.365Z,0.40
2023-04-18T16:10:31.272Z,0.90
2023-04-18T16:12:59.629Z,0.85
2023-04-18T16:15:26.738Z,0.70
2023-04-18T16:17:53.978Z,0.90
2023-04-18T16:20:21.060Z,0.38
2023-04-18T16:22:48.316Z,0.30
2023-04-18T16:25:15.317Z,0.57
2023-04-18T16:27:42.955Z,0.35
2023-04-18T16:30:10.367Z,0.90
2023-04-18T16:32:38.179Z,0.55
2023-04-18T16:35:07.764Z,1.50
2023-04-18T16:37:34.651Z,1.10
2023-04-18T16:40:01.665Z,1.30
2023-04-18T16:42:28.616Z,0.60
2023-04-18T16:44:55.563Z,0.60
2023-04-18T16:47:22.482Z,1.42
2023-04-18T16:49:50.793Z,1.02
2023-04-18T16:52:18.224Z,1.45
2023-04-18T16:54:45.180Z,0.40
2023-04-18T16:57:12.418Z,0.63
2023-04-18T16:59:39.296Z,0.60
2023-04-18T17:02:06.309Z,1.23
2023-04-18T17:04:33.334Z,0.40
2023-04-18T17:07:00.833Z,1.05
2023-04-18T17:09:27.695Z,0.50
2023-04-18T17:11:54.563Z,0.60
2023-04-18T17:14:21.505Z,0.68
2023-04-18T17:16:49.535Z,0.50
2023-04-18T17:19:17.633Z,0.70
2023-04-18T17:21:44.633Z,0.60
2023-04-18T17:24:11.481Z,0.40
2023-04-18T17:26:39.400Z,0.60
2023-04-18T17:29:06.410Z,0.43
2023-04-18T17:31:34.461Z,0.75
2023-04-18T17:34:01.526Z,0.30
2023-04-18T17:36:28.444Z,0.50
2023-04-18T17:38:55.915Z,0.20
2023-04-18T17:41:22.819Z,0.60
2023-04-18T17:43:53.603Z,0.70
2023-04-18T17:46:20.714Z,0.43
2023-04-18T17:48:47.715Z,0.38
2023-04-18T17:51:16.480Z,0.40
2023-04-18T17:53:43.445Z,0.63
2023-04-18T17:56:10.723Z,0.65
2023-04-18T17:58:37.822Z,0.60
2023-04-18T18:01:13.433Z,0.20
2023-04-18T18:03:40.652Z,0.50
2023-04-18T18:06:07.816Z,0.50
2023-04-18T18:08:34.681Z,0.40
2023-04-18T18:11:01.748Z,0.30
2023-04-18T18:13:28.649Z,0.35
2023-04-18T18:15:57.603Z,0.63
2023-04-18T18:18:24.686Z,0.30
2023-04-18T18:20:51.806Z,0.40
2023-04-18T18:23:18.652Z,0.40
2023-04-18T18:25:45.538Z,0.50
2023-04-18T18:28:12.464Z,0.30
2023-04-18T18:30:39.382Z,0.38
2023-04-18T18:33:06.354Z,0.20
2023-04-18T18:35:33.361Z,0.40
2023-04-18T18:38:00.235Z,0.30
2023-04-18T18:40:27.126Z,0.47
2023-04-18T18:42:54.822Z,0.20
2023-04-18T18:45:21.888Z,0.17
2023-04-18T18:47:48.947Z,0.40
2023-04-18T18:50:16.000Z,0.40
2023-04-18T18:52:45.576Z,0.30
2023-04-18T18:55:12.464Z,0.30
2023-04-18T18:57:39.405Z,0.68
2023-04-18T19:00:11.885Z,0.22
2023-04-18T19:02:39.842Z,0.30
2023-04-18T19:05:07.664Z,0.45
2023-04-18T19:07:34.651Z,0.90
2023-04-18T19:10:01.811Z,0.60
2023-04-18T19:12:29.408Z,0.40
2023-04-18T19:14:56.371Z,0.57
2023-04-18T19:17:24.861Z,0.40
2023-04-18T19:19:53.178Z,0.20
2023-04-18T19:22:20.114Z,0.50
2023-04-18T19:24:47.046Z,0.28
2023-04-18T19:27:13.953Z,0.22
2023-04-18T19:29:41.005Z,0.55
2023-04-18T19:32:07.942Z,0.30
2023-04-18T19:34:34.904Z,0.60
2023-04-18T19:37:01.791Z,0.82
2023-04-18T19:39:29.063Z,0.57
2023-04-18T19:41:56.036Z,0.30
2023-04-18T19:44:22.910Z,0.25
2023-04-18T19:46:49.803Z,0.20
2023-04-18T19:49:16.860Z,0.28
2023-04-18T19:51:43.915Z,0.20
2023-04-18T19:54:10.903Z,0.50
2023-04-18T19:56:37.786Z,0.40
2023-04-18T19:59:06.064Z,0.20
2023-04-18T20:01:33.157Z,0.40
2023-04-18T20:04:00.710Z,0.20
2023-04-18T20:06:28.044Z,0.20
2023-04-18T20:08:55.137Z,0.82
2023-04-18T20:11:22.318Z,0.30
2023-04-18T20:13:49.434Z,0.40
2023-04-18T20:16:16.991Z,0.50
2023-04-18T20:18:47.538Z,0.45
2023-04-18T20:21:14.884Z,0.25
2023-04-18T20:23:42.747Z,0.20
2023-04-18T20:26:09.718Z,0.28
2023-04-18T20:28:37.950Z,0.40
2023-04-18T20:31:05.152Z,0.40
2023-04-18T20:33:32.938Z,0.30
2023-04-18T20:36:00.058Z,0.20
2023-04-18T20:38:29.697Z,0.30
2023-04-18T20:40:58.914Z,0.32
2023-04-18T20:43:26.127Z,0.20
2023-04-18T20:45:54.546Z,0.35
2023-04-18T20:48:21.482Z,0.52
2023-04-18T20:50:51.756Z,0.30
2023-04-18T20:53:22.511Z,0.30
2023-04-18T20:55:49.572Z,0.50
2023-04-18T20:58:16.917Z,0.20
2023-04-18T21:00:44.935Z,0.38
2023-04-18T21:03:17.954Z,0.30
2023-04-18T21:05:45.621Z,0.47
2023-04-18T21:08:12.713Z,0.20
2023-04-18T21:10:39.925Z,0.20
2023-04-18T21:13:09.305Z,0.28
2023-04-18T21:15:36.544Z,0.35
2023-04-18T21:18:03.639Z,0.30
2023-04-18T21:20:31.090Z,0.30
2023-04-18T21:22:58.022Z,0.60
2023-04-18T21:25:24.981Z,0.40
2023-04-18T21:27:51.972Z,0.20
2023-04-18T21:30:19.216Z,0.20
2023-04-18T21:32:47.319Z,0.40
2023-04-18T21:35:16.093Z,0.30
2023-04-18T21:37:44.301Z,0.25
2023-04-18T21:40:11.483Z,0.40
2023-04-18T21:42:38.340Z,0.30
2023-04-18T21:45:06.304Z,0.52
2023-04-18T21:50:23.846Z,0.40
2023-04-18T21:52:50.759Z,0.30
2023-04-18T21:55:18.183Z,0.40
2023-04-18T21:57:45.086Z,0.47
2023-04-18T22:00:12.944Z,0.32
2023-04-18T22:02:39.985Z,0.10
2023-04-18T22:05:07.956Z,0.20
2023-04-18T22:07:43.341Z,0.30
2023-04-18T22:10:17.834Z,0.40
2023-04-18T22:12:44.757Z,0.30
2023-04-18T22:15:12.659Z,0.30
2023-04-18T22:17:41.799Z,0.20
2023-04-18T22:20:09.216Z,0.20
2023-04-18T22:22:36.088Z,0.50
2023-04-18T22:25:03.198Z,0.20
2023-04-18T22:27:30.130Z,0.20
2023-04-18T22:29:56.967Z,0.30
2023-04-18T22:32:24.087Z,0.20
2023-04-18T22:34:50.989Z,0.32
2023-04-18T22:37:17.889Z,0.40
2023-04-18T22:39:45.015Z,0.50
2023-04-18T22:42:11.897Z,1.15
2023-04-18T22:44:38.872Z,0.38
2023-04-18T22:47:06.361Z,0.30
2023-04-18T22:49:33.413Z,0.40
2023-04-18T22:52:01.321Z,0.40
2023-04-18T22:54:28.234Z,0.40
2023-04-18T22:56:55.152Z,0.43
2023-04-18T22:59:22.191Z,0.30
2023-04-18T23:01:49.268Z,0.35
2023-04-18T23:04:16.482Z,0.30
2023-04-18T23:06:43.848Z,0.28
2023-04-18T23:09:10.786Z,0.30
2023-04-18T23:11:37.655Z,0.60
2023-04-18T23:14:04.601Z,0.52
2023-04-18T23:16:32.548Z,0.35
2023-04-18T23:18:59.378Z,0.98
2023-04-18T23:21:27.890Z,0.38
2023-04-18T23:23:54.770Z,0.40
2023-04-18T23:26:22.358Z,0.50
2023-04-18T23:28:49.498Z,0.43
2023-04-18T23:31:16.568Z,0.40
2023-04-18T23:33:44.426Z,0.30
2023-04-18T23:36:13.050Z,0.30
2023-04-18T23:38:40.611Z,0.40
2023-04-18T23:41:07.741Z,0.35
2023-04-18T23:43:35.526Z,0.50
2023-04-18T23:46:02.784Z,0.52
2023-04-18T23:48:29.728Z,0.30
2023-04-18T23:50:56.585Z,0.82
2023-04-18T23:53:23.917Z,0.40
2023-04-18T23:55:51.278Z,0.40
2023-04-18T23:58:18.192Z,0.43
